CST,Max TemperatureF,Mean TemperatureF,Min TemperatureF,Max Dew PointF,MeanDew PointF,Min DewpointF,Max Humidity, Mean Humidity, Min Humidity, Max Sea Level PressureIn, Mean Sea Level PressureIn, Min Sea Level PressureIn, Max VisibilityMiles, Mean VisibilityMiles, Min VisibilityMiles, Max Wind SpeedMPH, Mean Wind SpeedMPH, Max Gust SpeedMPH,PrecipitationIn, CloudCover, Events, WindDirDegrees
2012-12-1,68,60,51,55,52,46,88,76,64,30.14,30.06,29.98,10,9,7,21,10,28,0.00,5,,170
2012-12-2,73,61,49,61,55,48,100,85,59,30.10,30.05,30.00,10,6,0,17,7,25,0.00,4,Fog,178
2012-12-3,71,65,59,58,57,54,96,84,55,30.06,30.01,29.92,10,5,1,23,12,31,0.00,6,,174
2012-12-4,61,49,37,57,48,32,100,84,55,30.32,30.13,29.97,10,8,3,17,6,23,0.32,5,Rain-Thunderstorm,332
2012-12-5,59,46,33,35,30,28,76,56,32,30.36,30.26,30.13,10,10,10,14,4,17,0.00,0,,74
2012-12-6,58,47,36,51,41,31,94,75,58,30.11,29.98,29.90,10,10,7,13,6,16,0.00,4,,150
2012-12-7,62,54,46,52,50,45,100,85,63,29.91,29.87,29.81,10,6,0,9,3,12,0.00,8,Fog,220
2012-12-8,55,52,48,52,47,45,96,87,76,29.96,29.90,29.86,10,7,2,12,6,16,T,8,,59
2012-12-9,58,53,48,55,47,32,100,90,75,29.91,29.83,29.75,10,5,0,15,6,23,0.22,8,Fog-Rain-Thunderstorm,26
2012-12-10,39,29,18,31,19,15,85,72,61,30.12,30.00,29.91,10,10,10,17,8,23,0.00,4,,314
2012-12-11,42,29,15,21,16,12,85,65,38,30.25,30.17,30.11,10,10,8,18,3,107,0.00,0,,202
2012-12-12,49,34,18,25,17,11,81,53,22,30.36,30.30,30.25,10,10,10,10,4,16,0.00,0,,162
2012-12-13,53,42,31,23,22,20,67,50,30,30.35,30.29,30.23,10,10,10,15,7,18,0.00,0,,172
2012-12-14,51,38,25,39,28,21,85,59,39,30.25,30.15,29.95,10,10,8,16,6,22,0.07,2,Rain,154
2012-12-15,66,56,45,49,42,33,93,72,34,29.91,29.78,29.67,10,8,2,22,11,32,0.21,5,Rain,191
2012-12-16,59,48,36,39,35,33,89,67,42,29.77,29.72,29.63,10,10,10,9,2,13,0.00,0,,212
2012-12-17,47,38,28,38,35,26,92,79,65,29.85,29.72,29.65,10,6,0,15,7,22,0.00,5,Fog,316
2012-12-18,59,43,27,36,31,24,92,66,40,29.89,29.83,29.77,10,8,3,13,5,20,0.00,0,,201
2012-12-19,59,46,32,54,45,31,93,82,70,29.90,29.75,29.53,10,7,1,17,9,25,0.36,6,Rain-Thunderstorm,119
2012-12-20,57,42,27,52,33,16,89,70,51,30.16,29.68,29.39,10,8,1,37,20,48,0.62,6,Rain-Snow-Thunderstorm,262
2012-12-21,46,36,25,17,10,5,68,44,20,30.34,30.29,30.18,10,10,10,20,9,29,0.00,0,,304
2012-12-22,57,39,20,25,18,11,71,47,23,30.30,30.17,30.01,10,10,10,13,6,18,0.00,0,,182
2012-12-23,61,50,39,46,36,21,80,59,37,29.99,29.89,29.81,10,10,9,13,4,17,0.00,3,,204
2012-12-24,50,37,23,44,26,18,93,71,49,30.07,29.95,29.80,10,8,4,15,8,21,0.00,1,,344
2012-12-25,31,27,23,23,21,18,81,75,69,30.14,29.98,29.87,10,6,1,26,16,38,T,6,Snow,28
2012-12-26,37,30,23,21,19,17,81,65,48,30.19,30.03,29.86,10,9,2,26,15,38,T,4,Snow,345
2012-12-27,33,25,17,23,20,14,84,73,61,30.19,30.12,30.03,10,10,6,14,5,,0.00,1,,135
2012-12-28,35,32,29,32,29,24,92,85,78,30.04,29.93,29.86,10,4,0,12,4,17,0.10,8,Fog-Rain-Snow,341
2012-12-29,31,24,17,24,18,13,88,73,58,30.41,30.21,29.98,10,8,4,20,9,24,0.00,5,,290
2012-12-30,40,29,18,22,18,13,80,62,44,30.49,30.40,30.28,10,10,10,10,6,16,0.00,0,,211
2012-12-31,36,34,32,34,31,22,100,82,63,30.28,30.11,30.02,10,3,1,9,4,13,0.41,8,Rain-Snow,176